Time;durP1;ratioP1;P1;durP2;ratioP2;P2;SDS_P1;SDS_P2;PMS_P1;PMS_P2;Temp;Humidity;BMP_temperature;BMP_pressure;BME280_temperature;BME280_humidity;BME280_pressure;Samples;Min_cycle;Max_cycle;Signal;HPM_P1;HPM_P2
2021/04/19 02:45:53;;;;;;;62.55;40.40;;;9.30;93.80;;;;;;5613013;24;20053;-70
2021/04/19 02:48:24;;;;;;;63.58;41.15;;;9.30;93.80;;;;;;4810909;29;20392;-70
2021/04/19 02:51:02;;;;;;;66.85;40.20;;;9.30;93.70;;;;;;4813970;29;20026;-70
2021/04/19 02:53:28;;;;;;;65.93;40.92;;;9.30;93.60;;;;;;4815057;29;20083;-70
2021/04/19 02:55:55;;;;;;;64.05;40.78;;;9.30;93.60;;;;;;4809822;29;20039;-70
2021/04/19 02:58:54;;;;;;;63.70;40.50;;;9.30;93.70;;;;;;4815038;29;20038;-73
2021/04/19 03:01:28;;;;;;;64.50;40.75;;;9.40;93.60;;;;;;4805776;29;20027;-70
2021/04/19 03:03:59;;;;;;;64.80;40.78;;;9.40;93.70;;;;;;4798009;29;20344;-70
2021/04/19 03:06:29;;;;;;;69.43;41.13;;;9.40;93.50;;;;;;4798029;29;20317;-70
2021/04/19 03:09:00;;;;;;;61.28;40.03;;;9.40;93.50;;;;;;4813192;29;20035;-70
2021/04/19 03:11:52;;;;;;;63.80;41.17;;;9.40;93.60;;;;;;4813188;29;20322;-71
2021/04/19 03:14:25;;;;;;;63.47;40.25;;;9.40;93.50;;;;;;4813112;29;20031;-70
2021/04/19 03:17:02;;;;;;;59.08;39.60;;;9.30;93.50;;;;;;4810103;29;20060;-70
2021/04/19 03:20:15;;;;;;;65.20;41.92;;;9.40;93.60;;;;;;4795167;29;20031;-71
2021/04/19 03:22:57;;;;;;;63.33;39.35;;;9.50;93.50;;;;;;4744385;30;20040;-73
2021/04/19 03:25:29;;;;;;;64.40;41.92;;;9.40;93.50;;;;;;4745164;30;20062;-70
2021/04/19 03:27:57;;;;;;;67.80;41.25;;;9.40;93.80;;;;;;4759115;30;20039;-70
2021/04/19 03:30:24;;;;;;;62.13;39.25;;;9.30;93.90;;;;;;4761263;30;20070;-70
2021/04/19 03:33:03;;;;;;;68.25;40.97;;;9.30;94.00;;;;;;4762424;30;20039;-70
2021/04/19 03:35:33;;;;;;;63.88;41.25;;;9.40;94.20;;;;;;4762253;30;20051;-71
2021/04/19 03:38:03;;;;;;;68.82;42.20;;;9.20;94.40;;;;;;4765366;30;20040;-70
2021/04/19 03:40:34;;;;;;;68.40;43.67;;;9.30;94.50;;;;;;4764997;30;20076;-70
2021/04/19 03:43:09;;;;;;;66.07;41.70;;;9.30;94.60;;;;;;4780216;30;20036;-71
2021/04/19 03:45:40;;;;;;;66.82;41.97;;;9.20;94.80;;;;;;4764871;30;20032;-71
2021/04/19 03:48:26;;;;;;;70.82;42.42;;;9.20;94.90;;;;;;4769516;30;20067;-71
2021/04/19 03:51:07;;;;;;;72.80;44.78;;;9.30;94.90;;;;;;4765048;30;20038;-71
2021/04/19 03:53:41;;;;;;;76.38;46.70;;;9.30;94.90;;;;;;4750101;30;20044;-71
2021/04/19 03:56:10;;;;;;;72.70;43.83;;;9.30;94.90;;;;;;4747851;30;20032;-71
2021/04/19 03:58:45;;;;;;;71.60;43.88;;;9.30;95.00;;;;;;4758924;30;20051;-71
2021/04/19 04:01:13;;;;;;;71.63;46.10;;;9.30;94.90;;;;;;4814937;29;20109;-71
2021/04/19 04:03:47;;;;;;;68.65;44.05;;;9.30;94.90;;;;;;4817536;29;20031;-71
2021/04/19 04:06:28;;;;;;;77.57;46.38;;;9.30;95.00;;;;;;4811244;29;20050;-71
2021/04/19 04:08:58;;;;;;;74.95;47.67;;;9.30;95.00;;;;;;4817571;29;20019;-72
2021/04/19 04:11:26;;;;;;;73.82;46.10;;;9.40;95.10;;;;;;4817443;29;20320;-72
2021/04/19 04:14:03;;;;;;;70.20;45.17;;;9.50;95.00;;;;;;4816366;29;20348;-72
2021/04/19 04:16:30;;;;;;;77.00;48.63;;;9.40;95.30;;;;;;4816122;29;20321;-72
2021/04/19 04:19:08;;;;;;;81.78;47.35;;;9.40;95.20;;;;;;4802743;29;20051;-72
2021/04/19 04:21:44;;;;;;;78.35;47.60;;;9.40;95.40;;;;;;4815652;29;20031;-72
2021/04/19 04:24:21;;;;;;;77.28;47.17;;;9.40;95.40;;;;;;4815879;29;20083;-72
2021/04/19 04:26:47;;;;;;;82.93;48.30;;;9.40;95.30;;;;;;4817249;29;20382;-72
2021/04/19 04:29:13;;;;;;;71.43;45.53;;;9.40;95.70;;;;;;4816340;29;20026;-72
2021/04/19 04:31:43;;;;;;;72.80;45.30;;;9.40;95.70;;;;;;4815058;29;20092;-72
2021/04/19 04:34:13;;;;;;;83.80;47.58;;;9.30;95.70;;;;;;4815313;29;20284;-72
2021/04/19 04:36:40;;;;;;;79.93;47.80;;;9.30;95.70;;;;;;4814969;29;20050;-72
2021/04/19 04:39:12;;;;;;;77.18;46.58;;;9.30;95.70;;;;;;4815376;29;20034;-72
2021/04/19 04:41:44;;;;;;;72.38;44.70;;;9.30;95.60;;;;;;4815923;29;20041;-72
2021/04/19 04:44:15;;;;;;;75.93;45.33;;;9.40;95.70;;;;;;4816326;29;20026;-71
2021/04/19 04:46:51;;;;;;;79.60;47.17;;;9.40;95.70;;;;;;4814535;29;20046;-71
2021/04/19 04:49:24;;;;;;;75.45;45.90;;;9.40;95.90;;;;;;4809686;29;20033;-71
2021/04/19 04:51:53;;;;;;;69.47;42.90;;;9.40;95.40;;;;;;4815864;29;20048;-71
2021/04/19 04:54:20;;;;;;;75.57;45.85;;;9.40;95.60;;;;;;4814807;29;20034;-71
2021/04/19 04:56:52;;;;;;;67.20;42.63;;;9.40;95.70;;;;;;4812445;29;20102;-72
2021/04/19 04:59:19;;;;;;;80.05;45.35;;;9.40;95.50;;;;;;4814531;29;20683;-72
2021/04/19 05:01:47;;;;;;;74.07;44.63;;;9.40;95.50;;;;;;4814749;29;20268;-72
2021/04/19 05:04:14;;;;;;;73.28;45.22;;;9.50;95.50;;;;;;4815074;29;20034;-71
2021/04/19 05:06:41;;;;;;;69.05;43.22;;;9.60;95.30;;;;;;4808401;29;20027;-71
2021/04/19 05:09:10;;;;;;;;;;;9.50;95.30;;;;;;4814899;29;20098;-72
2021/04/19 05:11:39;;;;;;;68.57;42.55;;;9.60;95.30;;;;;;4814712;29;19925;-72
2021/04/19 05:14:05;;;;;;;68.82;41.90;;;9.60;95.10;;;;;;4815109;29;20058;-71
2021/04/19 05:16:31;;;;;;;66.85;40.35;;;9.70;95.00;;;;;;4812832;29;20023;-72
2021/04/19 05:19:02;;;;;;;68.28;42.67;;;9.80;94.80;;;;;;4813038;29;20191;-72
2021/04/19 05:21:28;;;;;;;72.90;44.35;;;9.80;94.50;;;;;;4814837;29;20037;-72
2021/04/19 05:23:54;;;;;;;73.80;42.85;;;9.80;94.80;;;;;;4809501;29;20027;-72
2021/04/19 05:26:20;;;;;;;67.72;41.60;;;9.70;94.30;;;;;;4805994;29;20080;-72
2021/04/19 05:28:47;;;;;;;67.93;41.55;;;9.70;94.40;;;;;;4810885;29;20026;-71
2021/04/19 05:31:14;;;;;;;73.25;44.50;;;9.80;94.70;;;;;;4810391;29;20050;-72
2021/04/19 05:33:40;;;;;;;68.55;39.97;;;9.90;94.40;;;;;;4812248;29;20114;-72
2021/04/19 05:36:12;;;;;;;72.68;41.00;;;9.80;93.50;;;;;;4813834;29;20022;-71
2021/04/19 05:38:42;;;;;;;68.28;42.42;;;9.90;94.20;;;;;;4811708;29;20026;-72
2021/04/19 05:41:10;;;;;;;69.47;40.92;;;9.90;94.10;;;;;;4807180;29;20027;-71
2021/04/19 05:43:36;;;;;;;68.18;41.33;;;9.90;93.90;;;;;;4814836;29;20046;-72
2021/04/19 05:46:02;;;;;;;72.85;43.88;;;9.80;93.90;;;;;;4807468;29;20322;-72
2021/04/19 05:48:28;;;;;;;74.63;42.67;;;9.90;94.00;;;;;;4811739;29;20045;-72
2021/04/19 05:50:57;;;;;;;65.05;41.25;;;9.90;94.30;;;;;;4803698;29;20198;-72
2021/04/19 05:53:24;;;;;;;69.50;42.15;;;9.80;94.10;;;;;;4812571;29;20023;-72
2021/04/19 05:55:55;;;;;;;78.05;43.78;;;9.90;94.30;;;;;;4815676;29;20050;-71
2021/04/19 05:58:47;;;;;;;70.13;42.72;;;9.80;94.60;;;;;;4812502;29;20083;-72
2021/04/19 06:01:17;;;;;;;75.93;43.00;;;9.80;94.60;;;;;;4812045;29;20035;-72
2021/04/19 06:03:50;;;;;;;69.32;41.90;;;9.80;94.80;;;;;;4810758;29;20047;-72
2021/04/19 06:06:29;;;;;;;69.40;41.63;;;9.90;94.70;;;;;;4811070;29;20056;-73
2021/04/19 06:09:01;;;;;;;70.82;42.78;;;9.90;94.30;;;;;;4806969;29;20022;-72
2021/04/19 06:11:41;;;;;;;69.75;42.25;;;10.00;94.40;;;;;;4792427;29;20066;-72
2021/04/19 06:14:23;;;;;;;69.20;42.55;;;10.00;94.20;;;;;;4811939;29;20066;-72
2021/04/19 06:16:50;;;;;;;73.25;43.95;;;10.10;94.50;;;;;;4807292;29;20101;-72
2021/04/19 06:19:18;;;;;;;76.53;42.60;;;10.00;94.00;;;;;;4811441;29;20053;-71
2021/04/19 06:21:44;;;;;;;78.88;43.97;;;10.10;93.60;;;;;;4809422;29;20106;-72
2021/04/19 06:24:11;;;;;;;71.60;42.60;;;10.00;93.50;;;;;;4813361;29;20019;-72
2021/04/19 06:26:37;;;;;;;;;;;10.10;93.90;;;;;;4811854;29;20039;-72
2021/04/19 06:29:08;;;;;;;81.17;45.20;;;10.10;94.00;;;;;;4813853;29;19916;-72
2021/04/19 06:31:36;;;;;;;70.95;44.25;;;10.10;94.40;;;;;;4811949;29;20034;-73
2021/04/19 06:34:06;;;;;;;77.18;43.42;;;10.10;94.20;;;;;;4812470;29;20222;-72
2021/04/19 06:36:37;;;;;;;65.75;41.25;;;10.20;94.10;;;;;;4811000;29;20060;-72
2021/04/19 06:39:07;;;;;;;66.43;42.05;;;10.30;93.80;;;;;;4810370;29;20211;-72
2021/04/19 06:41:33;;;;;;;73.22;42.40;;;10.30;94.10;;;;;;4813820;29;20031;-72
2021/04/19 06:44:00;;;;;;;67.32;39.85;;;10.30;93.80;;;;;;4808991;29;20054;-72
2021/04/19 06:46:30;;;;;;;71.68;42.15;;;10.40;93.50;;;;;;4811781;29;20138;-72
2021/04/19 06:48:56;;;;;;;72.78;43.00;;;10.60;93.70;;;;;;4812714;29;20027;-72
2021/04/19 06:51:22;;;;;;;72.10;43.10;;;10.60;93.20;;;;;;4809843;29;20068;-72
2021/04/19 06:53:56;;;;;;;66.30;41.03;;;10.70;93.20;;;;;;4795250;29;20027;-72
2021/04/19 06:56:23;;;;;;;71.15;39.85;;;10.80;93.10;;;;;;4810394;29;20038;-71
2021/04/19 06:58:55;;;;;;;63.40;39.85;;;10.80;92.20;;;;;;4811483;29;20034;-71
2021/04/19 07:01:23;;;;;;;63.15;40.65;;;10.80;92.30;;;;;;4811404;29;20050;-71
2021/04/19 07:03:55;;;;;;;68.75;41.10;;;10.80;92.50;;;;;;4809909;29;20111;-71
2021/04/19 07:06:26;;;;;;;76.18;43.22;;;10.80;91.90;;;;;;4815129;29;20037;-72
2021/04/19 07:08:56;;;;;;;73.00;42.63;;;10.80;92.00;;;;;;4812699;29;20043;-71
2021/04/19 07:11:23;;;;;;;68.40;42.40;;;10.90;91.40;;;;;;4815874;29;20030;-71
2021/04/19 07:13:50;;;;;;;70.60;41.75;;;11.00;92.10;;;;;;4813004;29;20376;-72
2021/04/19 07:16:17;;;;;;;69.20;41.80;;;11.00;91.90;;;;;;4814810;29;20056;-72
2021/04/19 07:18:42;;;;;;;70.78;42.75;;;11.00;92.10;;;;;;4816524;29;20384;-71
2021/04/19 07:21:10;;;;;;;67.80;42.65;;;11.10;91.40;;;;;;4817029;29;20088;-71
2021/04/19 07:23:36;;;;;;;66.60;42.70;;;11.20;91.30;;;;;;4818295;29;20063;-71
2021/04/19 07:26:06;;;;;;;69.68;41.92;;;11.10;90.70;;;;;;4818221;29;20062;-71
2021/04/19 07:28:36;;;;;;;70.03;41.85;;;11.30;91.00;;;;;;4817025;29;20063;-72
2021/04/19 07:31:04;;;;;;;65.30;42.55;;;11.40;91.00;;;;;;4817730;29;20037;-71
2021/04/19 07:33:32;;;;;;;70.28;41.33;;;11.50;90.40;;;;;;4814902;29;20092;-72
2021/04/19 07:36:22;;;;;;;67.13;41.13;;;11.50;89.80;;;;;;4804471;29;20330;-72
2021/04/19 07:38:48;;;;;;;68.88;42.05;;;11.60;90.40;;;;;;4817037;29;20046;-72
2021/04/19 07:41:15;;;;;;;65.13;41.40;;;11.70;89.90;;;;;;4806686;29;20035;-72
2021/04/19 07:43:42;;;;;;;69.27;41.90;;;11.80;90.00;;;;;;4815300;29;20321;-71
2021/04/19 07:46:13;;;;;;;68.13;41.65;;;11.80;87.70;;;;;;4813559;29;20083;-71
2021/04/19 07:48:42;;;;;;;61.63;39.00;;;12.10;89.70;;;;;;4816190;29;20298;-72
2021/04/19 07:51:25;;;;;;;60.80;39.58;;;12.20;86.60;;;;;;4816603;29;20031;-72
2021/04/19 07:53:51;;;;;;;64.75;39.45;;;12.20;86.60;;;;;;4816633;29;20031;-72
2021/04/19 07:56:18;;;;;;;66.72;40.08;;;12.60;87.20;;;;;;4816447;29;20270;-71
2021/04/19 07:58:44;;;;;;;69.15;41.78;;;12.80;86.20;;;;;;4817519;29;20041;-71
2021/04/19 08:01:10;;;;;;;60.10;38.35;;;12.90;86.20;;;;;;4816172;29;20334;-72
2021/04/19 08:03:42;;;;;;;61.85;40.17;;;13.00;84.10;;;;;;4817169;29;20034;-72
2021/04/19 08:06:21;;;;;;;62.15;38.60;;;13.10;82.60;;;;;;4812128;29;20083;-72
2021/04/19 08:08:48;;;;;;;64.22;39.78;;;13.00;83.00;;;;;;4816215;29;20328;-72
2021/04/19 08:11:18;;;;;;;68.55;41.72;;;13.30;82.00;;;;;;4817217;29;20038;-72
2021/04/19 08:13:45;;;;;;;61.45;39.30;;;13.40;81.50;;;;;;4813115;29;20039;-72
2021/04/19 08:16:19;;;;;;;70.43;42.40;;;13.40;79.60;;;;;;4815243;29;20030;-71
2021/04/19 08:18:45;;;;;;;62.83;39.22;;;13.50;80.80;;;;;;4816230;29;20271;-71
2021/04/19 08:21:11;;;;;;;63.75;39.08;;;13.70;77.70;;;;;;4817062;29;20035;-71
2021/04/19 08:23:44;;;;;;;67.68;40.08;;;13.70;77.40;;;;;;4808670;29;20381;-71
2021/04/19 08:26:12;;;;;;;65.53;39.65;;;13.60;78.10;;;;;;4812796;29;20038;-71
2021/04/19 08:28:43;;;;;;;65.95;39.00;;;13.50;75.90;;;;;;4817569;29;20626;-72
2021/04/19 08:31:10;;;;;;;61.80;37.88;;;13.80;78.30;;;;;;4816936;29;20027;-71
2021/04/19 08:33:36;;;;;;;64.40;40.90;;;13.70;77.00;;;;;;4816947;29;20034;-72
2021/04/19 08:36:05;;;;;;;65.03;38.92;;;13.70;77.00;;;;;;4816800;29;20034;-72
2021/04/19 08:38:33;;;;;;;66.05;40.83;;;13.70;75.50;;;;;;4815870;29;20137;-72
2021/04/19 08:40:59;;;;;;;73.38;40.92;;;13.80;76.60;;;;;;4816764;29;20094;-71
2021/04/19 08:43:28;;;;;;;59.90;40.00;;;13.90;77.40;;;;;;4815716;29;20028;-71
2021/04/19 08:45:55;;;;;;;64.18;39.95;;;13.80;76.50;;;;;;4815060;29;20026;-71
2021/04/19 08:48:21;;;;;;;63.35;41.67;;;13.80;74.20;;;;;;4816780;29;20368;-72
2021/04/19 08:50:51;;;;;;;65.10;41.00;;;13.70;75.50;;;;;;4816742;29;20030;-72
2021/04/19 08:53:18;;;;;;;66.60;42.47;;;13.80;75.80;;;;;;4816699;29;20035;-72
2021/04/19 08:55:44;;;;;;;;;;;13.90;75.50;;;;;;4803647;29;20088;-72
2021/04/19 08:58:12;;;;;;;69.15;42.33;;;14.00;75.70;;;;;;4815661;29;20208;-71
2021/04/19 09:00:41;;;;;;;62.20;42.33;;;14.00;75.20;;;;;;4815275;29;20225;-72
2021/04/19 09:03:08;;;;;;;66.25;42.42;;;14.30;76.00;;;;;;4816212;29;20030;-71
2021/04/19 09:05:35;;;;;;;66.88;41.97;;;14.30;74.20;;;;;;4809972;29;20031;-71
2021/04/19 09:08:05;;;;;;;67.28;41.40;;;14.40;72.90;;;;;;4816198;29;20082;-72
2021/04/19 09:10:51;;;;;;;69.68;41.83;;;14.40;73.40;;;;;;4815178;29;20206;-72
2021/04/19 09:13:31;;;;;;;60.67;39.75;;;14.50;73.60;;;;;;4815032;29;20027;-72
2021/04/19 09:16:15;;;;;;;71.72;42.88;;;14.60;72.80;;;;;;4815948;29;20031;-72
2021/04/19 09:18:45;;;;;;;68.72;43.33;;;14.60;73.80;;;;;;4814741;29;20035;-72
2021/04/19 09:21:50;;;;;;;69.00;43.03;;;14.70;71.20;;;;;;4799665;29;20062;-73
2021/04/19 09:24:22;;;;;;;68.40;43.07;;;14.80;72.30;;;;;;4810254;29;20034;-73
2021/04/19 09:26:49;;;;;;;68.20;45.42;;;14.80;70.20;;;;;;4815772;29;20035;-72
2021/04/19 09:29:24;;;;;;;66.82;43.70;;;14.70;70.90;;;;;;4814934;29;20119;-72
2021/04/19 09:31:55;;;;;;;72.95;45.30;;;14.60;70.80;;;;;;4815930;29;20038;-72
2021/04/19 09:34:39;;;;;;;70.82;47.25;;;14.60;71.40;;;;;;4816080;29;20076;-72
2021/04/19 09:37:07;;;;;;;67.95;44.83;;;14.60;72.00;;;;;;4816037;29;20031;-73
2021/04/19 09:40:05;;;;;;;67.03;44.92;;;14.60;71.30;;;;;;4816048;29;20309;-72
2021/04/19 09:42:56;;;;;;;68.30;43.72;;;15.00;72.20;;;;;;4813886;29;20117;-72
2021/04/19 09:45:51;;;;;;;62.67;41.53;;;15.80;67.70;;;;;;4813958;29;20095;-72
2021/04/19 09:48:26;;;;;;;62.13;43.75;;;16.20;65.30;;;;;;4793542;29;20039;-73
2021/04/19 09:50:55;;;;;;;63.97;44.10;;;16.10;67.30;;;;;;4813709;29;20111;-73
2021/04/19 09:53:21;;;;;;;65.43;42.38;;;16.20;67.00;;;;;;4798900;29;20081;-73
2021/04/19 09:55:47;;;;;;;64.50;44.17;;;16.40;65.00;;;;;;4782488;29;20023;-73
2021/04/19 09:58:17;;;;;;;68.50;42.97;;;16.10;66.40;;;;;;4798897;29;20162;-73
2021/04/19 10:00:43;;;;;;;60.22;41.25;;;15.80;65.00;;;;;;4813923;29;20043;-73
2021/04/19 10:03:10;;;;;;;61.17;42.33;;;16.10;66.40;;;;;;4798395;29;20039;-73
2021/04/19 10:05:40;;;;;;;62.50;41.83;;;16.40;65.10;;;;;;4798722;29;20509;-73
2021/04/19 10:08:08;;;;;;;62.53;40.95;;;16.50;64.50;;;;;;4813855;29;20023;-73
2021/04/19 10:10:36;;;;;;;58.90;38.25;;;17.10;64.60;;;;;;4781795;29;20097;-73
2021/04/19 10:13:01;;;;;;;57.63;38.03;;;17.80;60.70;;;;;;4798648;29;20047;-73
2021/04/19 10:15:27;;;;;;;52.15;38.80;;;18.00;58.90;;;;;;4813860;29;20065;-73
2021/04/19 10:17:53;;;;;;;52.55;36.38;;;18.40;58.10;;;;;;4810172;29;20057;-74
2021/04/19 10:20:24;;;;;;;52.30;36.97;;;18.70;55.80;;;;;;4815509;29;20051;-73
2021/04/19 10:23:10;;;;;;;52.60;38.55;;;18.40;55.70;;;;;;4823924;29;20047;-73
2021/04/19 10:25:50;;;;;;;52.22;36.92;;;18.50;55.20;;;;;;4815671;29;20062;-73
2021/04/19 10:28:46;;;;;;;52.15;37.05;;;18.60;55.00;;;;;;4814254;29;20043;-73
2021/04/19 10:31:16;;;;;;;50.53;36.17;;;17.90;56.00;;;;;;4809167;29;20047;-73
2021/04/19 10:33:44;;;;;;;50.92;35.78;;;17.60;56.20;;;;;;4813311;29;20369;-73
2021/04/19 10:36:15;;;;;;;50.17;34.15;;;17.40;57.40;;;;;;4798532;29;20183;-73
2021/04/19 10:38:42;;;;;;;49.08;36.00;;;17.50;58.30;;;;;;4814558;29;20034;-73
2021/04/19 10:41:08;;;;;;;49.85;35.63;;;17.20;57.10;;;;;;4801975;29;20342;-73
2021/04/19 10:43:34;;;;;;;51.15;35.85;;;17.00;58.20;;;;;;4802131;29;20031;-72
2021/04/19 10:46:00;;;;;;;53.05;35.42;;;16.80;58.90;;;;;;4817029;29;20091;-72
2021/04/19 10:48:28;;;;;;;58.72;36.70;;;16.40;59.70;;;;;;4816624;29;20039;-72
2021/04/19 10:50:57;;;;;;;50.17;33.65;;;16.10;60.40;;;;;;4817146;29;20035;-72
2021/04/19 10:53:39;;;;;;;49.53;34.10;;;16.00;61.00;;;;;;4816700;29;20046;-72
2021/04/19 10:56:06;;;;;;;49.55;35.08;;;15.70;61.40;;;;;;4816868;29;20072;-72
2021/04/19 10:58:34;;;;;;;57.28;38.55;;;15.60;62.70;;;;;;4801784;29;20384;-72
2021/04/19 11:01:01;;;;;;;57.15;37.83;;;15.20;63.70;;;;;;4800581;29;20245;-72
2021/04/19 11:03:35;;;;;;;52.63;37.20;;;15.00;65.20;;;;;;4800836;29;20050;-71
2021/04/19 11:06:05;;;;;;;60.40;38.70;;;15.00;66.30;;;;;;4801599;29;20065;-72
2021/04/19 11:09:07;;;;;;;62.85;37.67;;;15.20;65.50;;;;;;4814756;29;20068;-71
2021/04/19 11:11:35;;;;;;;55.83;36.92;;;15.10;66.10;;;;;;4800873;29;20106;-72
2021/04/19 11:14:18;;;;;;;57.00;36.80;;;15.30;66.70;;;;;;4788389;29;20106;-71
2021/04/19 11:16:59;;;;;;;53.05;35.45;;;15.40;64.70;;;;;;4771890;29;20038;-71
2021/04/19 11:19:45;;;;;;;57.97;37.03;;;15.30;64.50;;;;;;4798772;29;20030;-72
2021/04/19 11:22:36;;;;;;;51.45;35.20;;;15.20;65.80;;;;;;4803593;29;20134;-71
2021/04/19 11:25:14;;;;;;;55.63;35.90;;;15.20;64.40;;;;;;4744813;30;20041;-71
2021/04/19 11:27:40;;;;;;;57.58;37.20;;;15.10;65.70;;;;;;4734457;30;20071;-71
2021/04/19 11:30:27;;;;;;;59.72;35.95;;;15.30;65.40;;;;;;4744815;30;20040;-71
2021/04/19 11:33:02;;;;;;;56.25;36.13;;;15.60;65.00;;;;;;4729888;30;20036;-70
2021/04/19 11:35:34;;;;;;;50.80;34.83;;;15.60;63.90;;;;;;4744477;30;20052;-71
2021/04/19 11:38:03;;;;;;;44.65;30.95;;;15.70;63.60;;;;;;4725247;30;20037;-70
2021/04/19 11:40:40;;;;;;;52.05;33.30;;;15.90;63.50;;;;;;4744284;30;20151;-71
2021/04/19 11:43:16;;;;;;;;;;;16.20;63.80;;;;;;4744525;30;20068;-71
2021/04/19 11:45:42;;;;;;;48.15;33.97;;;16.20;62.10;;;;;;4744050;30;19910;-71
2021/04/19 11:48:12;;;;;;;46.15;32.67;;;16.60;62.10;;;;;;4747696;30;20059;-71
2021/04/19 11:50:39;;;;;;;48.72;32.53;;;17.60;60.30;;;;;;4761502;30;20039;-71
2021/04/19 11:53:05;;;;;;;48.55;30.90;;;18.40;58.00;;;;;;4731915;30;20036;-71
2021/04/19 11:55:30;;;;;;;47.85;30.42;;;18.80;56.50;;;;;;4744818;30;20383;-72
2021/04/19 11:57:56;;;;;;;46.22;28.83;;;19.00;53.80;;;;;;4759758;30;20042;-71
2021/04/19 12:00:22;;;;;;;39.58;30.05;;;18.90;54.60;;;;;;4762084;30;20066;-71
2021/04/19 12:02:48;;;;;;;41.78;30.52;;;18.60;54.00;;;;;;4798239;29;20341;-71
2021/04/19 12:05:14;;;;;;;45.60;28.45;;;18.20;54.70;;;;;;4816161;29;20034;-71
2021/04/19 12:07:39;;;;;;;39.33;28.33;;;17.90;56.40;;;;;;4817565;29;20371;-71
2021/04/19 12:10:07;;;;;;;46.55;29.38;;;17.80;55.20;;;;;;4817462;29;20022;-71
2021/04/19 12:12:32;;;;;;;45.58;29.05;;;17.70;55.80;;;;;;4816263;29;20101;-72
2021/04/19 12:14:58;;;;;;;42.58;29.85;;;17.20;56.80;;;;;;4814309;29;20318;-71
2021/04/19 12:17:24;;;;;;;45.05;29.85;;;17.00;58.30;;;;;;4815255;29;20027;-71
2021/04/19 12:19:49;;;;;;;39.65;28.63;;;16.70;59.30;;;;;;4815835;29;20191;-71
2021/04/19 12:22:15;;;;;;;43.85;28.52;;;16.50;60.10;;;;;;4815187;29;20037;-72
2021/04/19 12:24:41;;;;;;;63.58;38.10;;;16.20;63.80;;;;;;4816450;29;20126;-72
2021/04/19 12:27:06;;;;;;;57.58;39.67;;;15.70;78.80;;;;;;4794616;29;20026;-72
2021/04/19 12:29:32;;;;;;;54.30;39.03;;;15.00;83.00;;;;;;4815506;29;20026;-71
2021/04/19 12:31:59;;;;;;;54.88;37.63;;;14.50;84.50;;;;;;4801733;29;20367;-71
2021/04/19 12:34:24;;;;;;;52.23;38.00;;;14.00;86.20;;;;;;4814525;29;20056;-72
2021/04/19 12:36:54;;;;;;;64.28;43.15;;;13.70;89.70;;;;;;4814942;29;20035;-71
2021/04/19 12:39:21;;;;;;;58.10;38.88;;;13.40;92.70;;;;;;4815672;29;20038;-72
2021/04/19 12:41:48;;;;;;;59.35;40.15;;;13.00;91.80;;;;;;4812886;29;20045;-72
2021/04/19 12:44:14;;;;;;;59.25;40.35;;;13.10;93.20;;;;;;4813566;29;20094;-72
2021/04/19 12:46:40;;;;;;;62.92;42.78;;;13.20;93.30;;;;;;4816414;29;20077;-72
2021/04/19 12:49:06;;;;;;;58.95;40.88;;;13.30;92.90;;;;;;4815321;29;20066;-71
2021/04/19 12:51:33;;;;;;;65.35;43.00;;;13.40;91.50;;;;;;4816340;29;20034;-71
2021/04/19 12:53:58;;;;;;;69.72;45.22;;;13.40;92.00;;;;;;4816635;29;20034;-71
2021/04/19 12:56:24;;;;;;;66.50;41.65;;;13.30;91.90;;;;;;4816762;29;20037;-72
2021/04/19 12:58:50;;;;;;;58.58;39.58;;;13.20;91.60;;;;;;4815425;29;20113;-72
2021/04/19 13:01:16;;;;;;;67.70;42.08;;;13.20;91.40;;;;;;4815417;29;20049;-71
2021/04/19 13:03:42;;;;;;;58.95;39.08;;;13.30;91.90;;;;;;4814542;29;20345;-72
2021/04/19 13:06:08;;;;;;;63.22;39.58;;;13.30;90.80;;;;;;4816183;29;20080;-72
2021/04/19 13:08:33;;;;;;;64.78;42.38;;;13.20;91.30;;;;;;4816448;29;20027;-71
2021/04/19 13:10:59;;;;;;;59.00;37.35;;;13.20;91.80;;;;;;4816454;29;20059;-71
2021/04/19 13:13:25;;;;;;;62.03;38.85;;;13.30;91.60;;;;;;4814847;29;20057;-72
2021/04/19 13:15:51;;;;;;;59.38;40.22;;;13.30;91.30;;;;;;4814013;29;20596;-72
2021/04/19 13:18:17;;;;;;;59.38;38.63;;;13.30;91.50;;;;;;4807259;29;20035;-72
2021/04/19 13:20:43;;;;;;;64.82;40.83;;;13.40;90.90;;;;;;4813113;29;20035;-71
2021/04/19 13:23:08;;;;;;;59.83;38.40;;;13.40;91.10;;;;;;4814661;29;20054;-72
2021/04/19 13:25:35;;;;;;;51.10;33.50;;;13.60;91.40;;;;;;4816075;29;20046;-71
2021/04/19 13:28:02;;;;;;;52.05;33.92;;;13.60;89.90;;;;;;4821285;29;20070;-71
2021/04/19 13:30:29;;;;;;;56.83;36.85;;;13.60;89.40;;;;;;4815034;29;20306;-71
2021/04/19 13:32:55;;;;;;;56.13;35.30;;;13.50;88.90;;;;;;4815959;29;20062;-71
2021/04/19 13:35:21;;;;;;;55.85;37.38;;;13.60;90.40;;;;;;4799997;29;20039;-71
2021/04/19 13:37:47;;;;;;;59.63;38.17;;;13.60;90.00;;;;;;4814024;29;20034;-70
2021/04/19 13:40:15;;;;;;;54.00;34.08;;;13.50;89.60;;;;;;4814446;29;20026;-71
2021/04/19 13:42:42;;;;;;;55.53;34.63;;;13.60;88.40;;;;;;4815459;29;20031;-71
2021/04/19 13:45:26;;;;;;;54.95;33.70;;;13.70;88.40;;;;;;4813413;29;20061;-71
2021/04/19 13:47:52;;;;;;;52.85;33.60;;;13.80;86.80;;;;;;4811149;29;20088;-71
2021/04/19 13:50:19;;;;;;;51.60;33.47;;;13.80;87.10;;;;;;4813090;29;20034;-71
2021/04/19 13:52:45;;;;;;;49.90;32.50;;;13.90;87.00;;;;;;4810049;29;20036;-71
2021/04/19 13:55:12;;;;;;;49.20;32.33;;;14.10;86.10;;;;;;4814237;29;20065;-71
2021/04/19 13:57:39;;;;;;;52.00;33.33;;;14.10;84.30;;;;;;4814841;29;20039;-71
2021/04/19 14:00:07;;;;;;;46.42;31.48;;;13.90;83.70;;;;;;4814480;29;20030;-71
2021/04/19 14:02:38;;;;;;;51.33;33.63;;;13.90;85.70;;;;;;4815727;29;20342;-71
2021/04/19 14:05:05;;;;;;;45.07;32.33;;;14.00;85.80;;;;;;4811788;29;20038;-70
2021/04/19 14:07:30;;;;;;;48.83;34.23;;;14.10;83.90;;;;;;4807716;29;20034;-71
2021/04/19 14:09:56;;;;;;;52.70;33.95;;;14.20;85.20;;;;;;4814511;29;20023;-71
2021/04/19 14:12:24;;;;;;;51.17;33.92;;;14.20;81.60;;;;;;4814301;29;20031;-71
2021/04/19 14:14:49;;;;;;;;;;;14.30;81.00;;;;;;4814505;29;20214;-71
2021/04/19 14:17:15;;;;;;;47.40;32.37;;;14.30;83.60;;;;;;4814363;29;19909;-71
2021/04/19 14:19:41;;;;;;;50.53;33.38;;;14.40;82.50;;;;;;4815458;29;20034;-71
2021/04/19 14:22:07;;;;;;;48.50;32.75;;;14.40;83.20;;;;;;4815435;29;20060;-71
2021/04/19 14:24:34;;;;;;;47.95;30.80;;;14.30;83.50;;;;;;4814005;29;20076;-72
2021/04/19 14:27:01;;;;;;;46.33;31.23;;;14.30;81.40;;;;;;4813151;29;20023;-71
2021/04/19 14:29:27;;;;;;;;;;;14.20;84.30;;;;;;4815770;29;20106;-71
2021/04/19 14:31:53;;;;;;;50.38;30.25;;;14.00;81.40;;;;;;4815401;29;19936;-71
2021/04/19 14:34:20;;;;;;;46.27;30.03;;;14.00;82.70;;;;;;4815169;29;20059;-71
2021/04/19 14:36:46;;;;;;;54.72;32.80;;;13.90;83.40;;;;;;4815182;29;20329;-71
2021/04/19 14:39:12;;;;;;;44.70;31.40;;;13.80;82.90;;;;;;4814104;29;20027;-71
2021/04/19 14:41:38;;;;;;;47.33;30.52;;;13.70;84.30;;;;;;4810287;29;20027;-72
2021/04/19 14:44:04;;;;;;;48.08;31.95;;;13.60;84.00;;;;;;4812123;29;20242;-71
2021/04/19 14:46:30;;;;;;;47.60;31.15;;;13.60;83.50;;;;;;4813578;29;20357;-71
2021/04/19 14:48:59;;;;;;;49.45;31.10;;;13.70;85.30;;;;;;4813972;29;20051;-71
2021/04/19 14:51:26;;;;;;;48.47;32.05;;;13.80;84.60;;;;;;4815235;29;20054;-71
2021/04/19 14:53:53;;;;;;;46.70;32.08;;;13.90;84.70;;;;;;4814784;29;20088;-71
2021/04/19 14:56:18;;;;;;;49.63;31.80;;;13.90;83.70;;;;;;4815091;29;20030;-71
2021/04/19 14:58:44;;;;;;;43.88;29.17;;;13.90;83.30;;;;;;4814727;29;20233;-71
2021/04/19 15:01:10;;;;;;;42.58;28.95;;;13.90;83.10;;;;;;4815193;29;20082;-71
2021/04/19 15:03:36;;;;;;;44.40;30.83;;;13.80;82.90;;;;;;4813753;29;20341;-71
2021/04/19 15:06:02;;;;;;;44.15;30.08;;;13.80;83.40;;;;;;4813708;29;20099;-71
2021/04/19 15:08:27;;;;;;;52.13;31.30;;;13.90;83.20;;;;;;4810060;29;20050;-71
2021/04/19 15:10:53;;;;;;;44.13;29.55;;;13.90;83.10;;;;;;4812288;29;20317;-71
2021/04/19 15:13:19;;;;;;;43.03;30.17;;;13.90;82.60;;;;;;4811809;29;20031;-70
2021/04/19 15:15:45;;;;;;;39.67;28.23;;;14.00;83.40;;;;;;4813777;29;20136;-71
2021/04/19 15:18:10;;;;;;;41.40;29.42;;;14.10;81.30;;;;;;4813612;29;20042;-71
2021/04/19 15:20:36;;;;;;;46.22;29.55;;;14.10;81.90;;;;;;4804074;29;20306;-71
2021/04/19 15:23:03;;;;;;;43.55;28.90;;;14.00;83.00;;;;;;4804892;29;20031;-71
2021/04/19 15:25:30;;;;;;;41.67;28.40;;;13.90;81.80;;;;;;4812151;29;20027;-71
2021/04/19 15:27:56;;;;;;;42.90;29.33;;;13.90;81.40;;;;;;4810280;29;20072;-71
2021/04/19 15:30:22;;;;;;;42.30;28.98;;;13.80;82.00;;;;;;4816933;29;20031;-71